This is the latest recevied weather packets stored in our database for station/object AE0NK. If no packets are shown the sender has not sent any weather packets the latest 1 day(s).
| Time | Temp. | Humidity | Pressure | Rain* | Wind** | Luminosity | Snow |
|---|---|---|---|---|---|---|---|
| 1836274582 | 20° C | 82% | 1016.5 hPa | 0 mm | 0 m/s | 0 W/m² | - |
| 1836274432 | 20° C | 82% | 1016.6 hPa | 0 mm | 0 m/s | 0 W/m² | - |
| 1836274283 | 20° C | 82% | 1016.5 hPa | 0 mm | 0 m/s | 0 W/m² | - |
| 1836274132 | 20° C | 82% | 1016.6 hPa | 0 mm | 0 m/s | 0 W/m² | - |
| 1836273984 | 20° C | 82% | 1016.6 hPa | 0 mm | 0 m/s | 0 W/m² | - |
| 1778060596 | 4.44° C | 68% | 1013.9 hPa | 0 mm | 0 m/s | 0 W/m² | - |
| 1778060292 | 4.44° C | 68% | 1013.9 hPa | 0 mm | 0 m/s | 0 W/m² | - |
| 1778060009 | 4.44° C | 67% | 1013.8 hPa | 0 mm | 0 m/s | 0 W/m² | - |
| 1778059707 | 4.44° C | 67% | 1013.8 hPa | 0 mm | 0.45 m/s, 317° | 0 W/m² | - |
| 1778059402 | 4.44° C | 67% | 1013.7 hPa | 0 mm | 0 m/s | 0 W/m² | - |
| 1778059100 | 4.44° C | 67% | 1013.7 hPa | 0 mm | 0 m/s | 0 W/m² | - |
| 1778058797 | 4.44° C | 68% | 1013.5 hPa | 0 mm | 0 m/s | 0 W/m² | - |
| 1778058494 | 4.44° C | 68% | 1013.3 hPa | 0 mm | 0 m/s | 0 W/m² | - |
| 1778058191 | 4.44° C | 69% | 1013.3 hPa | 0 mm | 0 m/s | 0 W/m² | - |
| 1778057905 | 4.44° C | 70% | 1013.3 hPa | 0 mm | 0 m/s | 0 W/m² | - |
| 1778057600 | 5° C | 68% | 1013.4 hPa | 0 mm | 0.45 m/s, 308° | 0 W/m² | - |
| 1778057297 | 5° C | 68% | 1013.3 hPa | 0 mm | 0 m/s | 0 W/m² | - |
| 1778056994 | 5° C | 68% | 1013.3 hPa | 0 mm | 0.45 m/s, 312° | 0 W/m² | - |
| 1778056693 | 5° C | 69% | 1013.3 hPa | 0 mm | 0 m/s | 0 W/m² | - |
| 1778056410 | 5° C | 70% | 1013.2 hPa | 0 mm | 0 m/s | 0 W/m² | - |
| 1778056105 | 5° C | 70% | 1013.1 hPa | 0 mm | 0 m/s | 0 W/m² | - |
| 1778055804 | 5° C | 68% | 1013.2 hPa | 0 mm | 0 m/s | 0 W/m² | - |
| 1778055502 | 5° C | 71% | 1013.3 hPa | 0 mm | 0 m/s | 0 W/m² | - |
| 1778055201 | 5° C | 71% | 1013.2 hPa | 0 mm | 0 m/s | 0 W/m² | - |
| 1778054898 | 5.56° C | 69% | 1013.4 hPa | 0 mm | 0 m/s | 0 W/m² | - |
* Rain latest hour (hover to see other rain measurements)
** Current wind speed in m/s (hover to see current wind gust speed)